Sagehen Creek Weather observations

Data are for observation ending at time listed.
 Day   Time    Ave.   Ave.  Ave.  Vector   Max.   Stn.    Total    Solar   Ave.  
  of    of     Air    Rel.  Wind   Wind    Wind   Baro.  Precip.   Rad.    Soil  
Year   Day     Temp.  Hum.  Speed  Dir.    Gust   Pres.                    Temp. 
2016   (PST)    F      %     mph   deg.    mph     mb.     in.     W/m2     F   
------------------------------------------------------------------------------
 343   22:50   37.9    88    1.6   248      4.0   837.3   14.15       0    999.0
 343   23:00   37.8    88    1.6   257      5.0   837.6   14.15       0    999.0
 343   23:10   38.1    87    2.3   265      6.2   837.3   14.15       0    999.0
 343   23:20   37.7    88    1.8   275      6.0   837.4   14.15       0    999.0
 343   23:30   38.2    88    2.8   146      6.0   837.5   14.15       0    999.0
 343   23:40   38.2    88    1.7   175      4.6   837.2   14.15       0    999.0
 343   23:50   38.3    89    2.2   148      5.3   837.1   14.15       0    999.0
 344    0:00   38.2    89    1.6   153      8.6   837.1   14.16       0    999.0
 344    0:10   38.5    89    1.3   122      6.4   837.2   14.16       0    999.0
 344    0:20   38.4    89    1.2    85      5.9   837.2   14.16       0    999.0
 344    0:30   38.4    90    2.9   108     12.8   837.3   14.16       0    999.0
 344    0:40   38.8    89    2.0   141      5.0   837.3   14.16       0    999.0
 344    0:50   38.5    89    1.7    83      7.0   837.3   14.16       0    999.0
 344    1:00   38.5    90    1.1    47      2.8   837.2   14.17       0    999.0
 344    1:10   38.6    90    2.8    89      6.8   837.6   14.17       0    999.0
 344    1:20   39.0    90    2.2   115      4.9   837.3   14.17       0    999.0
 344    1:30   38.4    90    1.4    50      3.6   837.0   14.17       0    999.0
 344    1:40   38.2    91    1.3   328      3.2   837.2   14.17       0    999.0
 344    1:50   38.2    92    1.7    98      4.8   837.2   14.17       0    999.0
 344    2:00   38.8    92    2.0   122      6.2   837.3   14.17       0    999.0
 344    2:10   39.5    90    3.0   135      9.5   837.4   14.18       0    999.0
 344    2:20   39.8    88    2.1    87      6.7   837.1   14.18       0    999.0
 344    2:30   39.3    89    2.7   227      8.5   836.9   14.18       0    999.0
 344    2:40   39.3    87    2.7   317      5.9   837.4   14.18       0    999.0
 344    2:50   38.6    88    1.1    28      5.2   837.0   14.18       0    999.0
 344    3:00   38.4    90    2.0   135      4.8   836.7   14.18       0    999.0
 344    3:10   38.9    90    1.7   103      4.5   837.2   14.18       0    999.0
 344    3:20   38.9    90    0.9   359      2.8   837.0   14.18       0    999.0
 344    3:30   38.9    90    2.0   212      9.8   836.7   14.18       0    999.0
 344    3:40   38.7    90    0.8   290      4.1   837.3   14.18       0    999.0
 344    3:50   38.6    90    0.9   355      2.4   836.9   14.18       0    999.0
 344    4:00   38.5    90    1.7    23      8.6   836.5   14.18       0    999.0
 344    4:10   38.5    90    1.1    74      3.0   836.5   14.18       0    999.0
 344    4:20   38.3    91    1.5    92      4.7   836.5   14.18       0    999.0
 344    4:30   38.6    91    1.7    21      4.9   836.6   14.18       0    999.0
 344    4:40   38.7    91    2.3    43      7.3   836.8   14.18       0    999.0
 344    4:50   38.6    90    1.7    19      4.6   836.7   14.18       0    999.0
 344    5:00   38.5    90    2.3    52      5.9   836.6   14.18       0    999.0
 344    5:10   38.5    91    1.8    17      6.3   836.8   14.18       0    999.0
 344    5:20   38.8    90    2.6     6      5.4   836.8   14.18       0    999.0
 344    5:30   39.2    88    1.0   331      4.1   836.7   14.18       0    999.0
 344    5:40   39.5    88    2.1   219      7.5   836.8   14.18       0    999.0
 344    5:50   39.2    87    1.9    59      4.5   836.8   14.18       0    999.0
 344    6:00   39.4    86    2.6     4      5.6   836.7   14.18       0    999.0
 344    6:10   39.9    84    1.7    28      7.0   836.7   14.18       0    999.0
 344    6:20   40.0    84    2.8   273     11.0   836.7   14.18       0    999.0
 344    6:30   39.7    85    2.0   238      6.4   836.8   14.18       0    999.0
 344    6:40   39.6    85    1.6   212      3.5   836.9   14.18       0    999.0
 344    6:50   39.4    85    2.0   101      7.1   837.1   14.18       0    999.0
 344    7:00   39.2    84    1.7   284      6.1   837.3   14.18       0    999.0
 344    7:10   38.8    83    2.7   192      9.1   837.3   14.18       1    999.0
 344    7:20   39.1    82    2.5   304      8.8   837.2   14.18       2    999.0
 344    7:30   39.0    81    2.1   246      5.3   837.1   14.18       3    999.0
 344    7:40   38.8    82    2.0   241      6.7   837.1   14.18       4    999.0
 344    7:50   39.1    82    3.3   160      7.4   837.3   14.18       9    999.0
 344    8:00   39.2    82    2.1   260      9.5   837.5   14.18      24    999.0
 344    8:10   39.0    81    2.3   253      6.9   837.1   14.18      25    999.0
 344    8:20   39.3    79    3.5   218      9.2   837.5   14.18      26    999.0
 344    8:30   39.4    78    2.8   252      7.8   837.9   14.18      31    999.0
 344    8:40   39.1    78    3.8   268     11.4   837.3   14.18      85    999.0
 344    8:50   39.3    77    3.5   239      8.8   837.7   14.18     133    999.0
 344    9:00   39.0    77    4.1   255     13.4   838.1   14.18      84    999.0
 344    9:10   39.0    77    4.0   260     15.3   837.8   14.18      73    999.0
 344    9:20   39.0    78    2.3   250      4.4   838.1   14.18      94    999.0
 344    9:30   39.2    78    3.0   236      5.9   838.4   14.18     184    999.0
 344    9:40   39.9    77    3.2   255      8.6   838.1   14.18     135    999.0
 344    9:50   40.3    77    2.9   231      6.9   838.4   14.18     159    999.0
 344   10:00   40.5    77    1.8   211      7.0   838.7   14.18     105    999.0
 344   10:10   40.7    76    2.4   214      7.5   838.3   14.18     115    999.0
 344   10:20   41.1    76    2.3   201      9.1   838.4   14.18     187    999.0
 344   10:30   42.1    73    2.6   238      7.6   838.4   14.18     280    999.0
 344   10:40   42.4    74    2.0   202      4.8   838.2   14.18     166    999.0
 344   10:50   42.5    74    1.8   156      5.9   838.4   14.18     211    999.0
 344   11:00   42.2    75    1.9   134      4.5   838.5   14.18     186    999.0
 344   11:10   42.3    74    2.2   142      8.2   837.9   14.18     153    999.0
 344   11:20   42.2    71    2.2   253      5.6   838.2   14.18     151    999.0
 344   11:30   41.9    72    2.5   164      8.4   838.5   14.18     163    999.0
 344   11:40   41.9    72    1.7   291      6.1   838.0   14.18     119    999.0
 344   11:50   41.8    74    1.5    52      7.2   838.1   14.18      99    999.0
 344   12:00   41.1    79    1.0   126      4.1   838.2   14.18     110    999.0
 344   12:10   40.9    80    1.9   178      4.2   838.0   14.18     151    999.0
 344   12:20   41.0    78    2.2     6      7.4   837.8   14.18     121    999.0
 344   12:30   40.7    79    2.2   131      4.7   837.7   14.18     114    999.0
 344   12:40   40.8    79    2.0   138      6.9   837.9   14.18     121    999.0
 344   12:50   41.1    78    1.9   296      4.1   837.7   14.18     146    999.0
 344   13:00   41.0    77    1.3   208      4.2   837.5   14.18     140    999.0
 344   13:10   41.3    72    2.1   151      4.8   837.5   14.18     115    999.0
 344   13:20   41.1    73    2.6   182      6.0   837.3   14.18     132    999.0
 344   13:30   41.2    72    1.7   138      7.0   837.1   14.18     142    999.0
 344   13:40   41.6    71    2.0   104      5.8   837.6   14.18     190    999.0
 344   13:50   42.0    69    1.3   353      3.1   837.4   14.18     140    999.0
 344   14:00   41.5    70    2.7   188      5.4   837.1   14.18      76    999.0
 344   14:10   40.9    70    1.8   183      4.5   837.5   14.18     123    999.0
 344   14:20   40.9    71    1.4    22      4.9   837.4   14.18      46    999.0
 344   14:30   40.1    73    3.3   122      8.1   837.4   14.18      74    999.0
 344   14:40   39.9    75    2.6   118      6.0   837.2   14.18      72    999.0
 344   14:50   39.6    76    2.1   156      6.1   837.1   14.18      52    999.0
 344   15:00   39.4    78    2.0   129      5.3   836.9   14.18      43    999.0
 344   15:10   39.0    80    2.5   158      5.8   837.3   14.18      47    999.0
 344   15:20   39.0    80    1.8   146      5.9   837.1   14.18      47    999.0
 344   15:30   39.0    79    2.0   134      5.8   837.0   14.18      24    999.0
 344   15:40   38.9    80    2.0   147      4.9   837.1   14.18      15    999.0
 344   15:50   38.7    81    1.1   274      2.7   837.1   14.18       7    999.0
 344   16:00   38.6    82    2.0   122      5.4   837.1   14.18       3    999.0
 344   16:10   38.1    84    0.7    58      2.1   837.3   14.19       8    999.0
 344   16:20   37.9    86    1.9   117      6.6   837.1   14.19       3    999.0
 344   16:30   37.8    87    1.9    83      4.3   837.0   14.19       1    999.0
 344   16:40   37.7    87    1.3    33      2.7   837.0   14.19       1    999.0
 344   16:50   37.5    88    1.3    97      3.8   837.0   14.19       0    999.0
 344   17:00   37.2    89    1.3    35      2.6   836.9   14.19       0    999.0
 344   17:10   37.0    90    1.3     0      4.0   836.9   14.19       0    999.0
 344   17:20   36.8    90    0.9   336      2.3   836.6   14.20       0    999.0
 344   17:30   36.7    91    1.7   105      7.0   836.3   14.20       0    999.0
 344   17:40   36.9    90    0.8    58      4.8   836.8   14.20       0    999.0
 344   17:50   37.1    91    2.0    91      8.2   836.5   14.20       0    999.0
 344   18:00   37.4    90    2.1   114      6.1   836.2   14.20       0    999.0
 344   18:10   37.9    90    1.8   205      5.1   836.6   14.20       0    999.0
 344   18:20   37.9    89    1.8   140      4.5   836.3   14.20       0    999.0
 344   18:30   37.8    88    1.7   345      3.9   836.1   14.20       0    999.0
 344   18:40   37.8    89    1.7    17      3.2   836.4   14.20       0    999.0
 344   18:50   37.8    88    2.0    69      5.7   836.3   14.20       0    999.0
 344   19:00   37.3    90    1.6    50      4.0   836.1   14.20       0    999.0
 344   19:10   37.2    90    1.0    53      2.9   836.4   14.20       0    999.0
 344   19:20   37.3    90    1.7    75      5.5   836.3   14.20       0    999.0
 344   19:30   37.9    89    3.5   324     10.5   836.2   14.20       0    999.0
 344   19:40   38.2    88    1.6    69      5.2   836.2   14.20       0    999.0
 344   19:50   38.1    88    1.6    42      4.1   836.2   14.20       0    999.0
 344   20:00   37.9    89    1.9    34      4.0   836.2   14.20       0    999.0
 344   20:10   38.4    88    3.0   153      9.2   836.1   14.20       0    999.0
 344   20:20   38.7    86    2.9   123      6.8   836.0   14.20       0    999.0
 344   20:30   38.3    87    2.2   155      5.2   835.9   14.20       0    999.0
 344   20:40   38.7    86    1.7   221      3.6   835.9   14.20       0    999.0
 344   20:50   38.2    86    2.2    41      5.7   835.9   14.20       0    999.0
 344   21:00   38.4    86    1.7   263      5.5   836.0   14.20       0    999.0
 344   21:10   38.7    84    1.5   323      7.9   835.5   14.20       0    999.0
 344   21:20   38.6    83    2.5   167      6.6   835.8   14.20       0    999.0
 344   21:30   38.4    82    2.0   186      8.8   836.0   14.20       0    999.0
 344   21:40   38.4    80    2.0   220      5.3   835.5   14.20       0    999.0
 344   21:50   38.2    81    3.8   175     14.4   835.5   14.20       0    999.0
 344   22:00   38.1    82    3.1   209      8.2   835.4   14.20       0    999.0
 344   22:10   38.0    82    4.1   190     11.6   835.2   14.20       0    999.0
 344   22:20   38.0    82    4.0   272      9.5   835.4   14.20       0    999.0
 344   22:30   37.9    82    3.1   278     12.8   835.5   14.20       0    999.0
 344   22:40   38.5    81    2.8   213      9.1   834.8   14.20       0    999.0

Return to Sagehen Creek graphs page.


Western Regional Climate Center,wrcc@dri.edu